Alsen, South Dakota
Current Conditions -  °F | °C
As of 1:15 PM on Tuesday 21 Oct 2014 (Local Time) from KYKN Reporting Station
Clear Clear  
Wind Chill: 73°   Ceiling: Unl
Heat Index: 73°   Visibility: 8mi
Dew Point: 46°   Wind: 16mph
Humidity: 38%   Direction: 180°S
Pressure: 30"   Gusts: NA
Location:  43.1048°N, 96.7944°W
Report Text: KYKN 211815Z AUTO 18014KT 8SM CLR 23/08 A3000 RMK AO1
Loading
Personal Weather Stations






























Interactive Weather Map
Tropical Storm Tracking
New forecast layout! Learn more

10-Day Weather Forecast

Advertisements
Track Severe Weather on mobile